createdAt,value
2023-05-21T00:01:07.883Z,17.27
2023-05-21T00:03:36.151Z,17.11
2023-05-21T00:06:03.815Z,17.17
2023-05-21T00:08:30.694Z,17.16
2023-05-21T00:10:57.245Z,17.15
2023-05-21T00:13:23.826Z,17.15
2023-05-21T00:15:50.488Z,17.08
2023-05-21T00:18:17.006Z,17.11
2023-05-21T00:20:43.599Z,17.10
2023-05-21T00:23:10.362Z,17.06
2023-05-21T00:25:37.966Z,17.00
2023-05-21T00:28:04.887Z,16.98
2023-05-21T00:30:32.412Z,16.97
2023-05-21T00:33:02.469Z,17.01
2023-05-21T00:35:29.531Z,16.96
2023-05-21T00:37:56.327Z,16.91
2023-05-21T00:40:22.896Z,16.80
2023-05-21T00:42:49.917Z,16.86
2023-05-21T00:45:16.490Z,16.79
2023-05-21T00:47:43.946Z,16.81
2023-05-21T00:50:11.736Z,16.78
2023-05-21T00:52:42.054Z,16.78
2023-05-21T00:55:10.520Z,16.76
2023-05-21T00:57:37.607Z,16.74
2023-05-21T01:00:10.748Z,16.79
2023-05-21T01:02:38.261Z,16.73
2023-05-21T01:05:08.493Z,16.72
2023-05-21T01:07:36.734Z,16.58
2023-05-21T01:10:08.538Z,16.61
2023-05-21T01:12:43.870Z,16.57
2023-05-21T01:15:11.457Z,16.43
2023-05-21T01:17:39.164Z,16.61
2023-05-21T01:20:12.424Z,16.54
2023-05-21T01:22:43.660Z,16.50
2023-05-21T01:25:11.155Z,16.59
2023-05-21T01:27:37.681Z,16.59
2023-05-21T01:30:04.607Z,16.52
2023-05-21T01:32:38.260Z,16.53
2023-05-21T01:35:09.859Z,16.56
2023-05-21T01:37:46.212Z,16.29
2023-05-21T01:40:45.494Z,16.35
2023-05-21T01:43:13.801Z,16.41
2023-05-21T01:45:42.254Z,16.42
2023-05-21T01:48:11.375Z,16.40
2023-05-21T01:50:40.507Z,16.33
2023-05-21T01:53:07.127Z,16.30
2023-05-21T01:55:33.875Z,16.25
2023-05-21T01:58:02.345Z,16.23
2023-05-21T02:00:29.536Z,16.22
2023-05-21T02:02:56.651Z,16.23
2023-05-21T02:05:23.419Z,16.16
2023-05-21T02:07:52.023Z,16.23
2023-05-21T02:10:20.692Z,16.19
2023-05-21T02:12:47.309Z,16.06
2023-05-21T02:15:18.117Z,16.04
2023-05-21T02:17:46.192Z,16.04
2023-05-21T02:20:14.616Z,16.05
2023-05-21T02:22:43.339Z,15.93
2023-05-21T02:25:10.977Z,15.76
2023-05-21T02:27:38.672Z,15.87
2023-05-21T02:30:08.456Z,15.97
2023-05-21T02:32:35.814Z,15.91
2023-05-21T02:35:04.082Z,15.79
2023-05-21T02:37:34.649Z,15.80
2023-05-21T02:40:06.036Z,15.63
2023-05-21T02:42:32.861Z,15.57
2023-05-21T02:44:59.692Z,15.56
2023-05-21T02:47:26.368Z,15.56
2023-05-21T02:49:54.062Z,15.46
2023-05-21T02:52:24.073Z,15.54
2023-05-21T02:54:51.630Z,15.52
2023-05-21T02:57:18.421Z,15.56
2023-05-21T02:59:45.956Z,15.46
2023-05-21T03:02:12.613Z,15.42
2023-05-21T03:04:45.976Z,15.46
2023-05-21T03:07:15.061Z,15.46
2023-05-21T03:09:42.643Z,15.26
2023-05-21T03:12:10.032Z,15.32
2023-05-21T03:14:36.859Z,15.27
2023-05-21T03:17:06.069Z,15.32
2023-05-21T03:19:36.829Z,15.27
2023-05-21T03:22:04.557Z,15.27
2023-05-21T03:24:31.849Z,15.26
2023-05-21T03:26:59.335Z,15.25
2023-05-21T03:29:25.861Z,15.15
2023-05-21T03:31:54.001Z,15.14
2023-05-21T03:34:21.037Z,15.16
2023-05-21T03:36:47.988Z,15.21
2023-05-21T03:39:14.931Z,15.12
2023-05-21T03:41:41.757Z,15.17
2023-05-21T03:44:08.777Z,15.16
2023-05-21T03:46:35.471Z,15.18
2023-05-21T03:49:02.451Z,15.18
2023-05-21T03:51:30.457Z,15.17
2023-05-21T03:53:59.114Z,15.15
2023-05-21T03:56:26.954Z,15.15
2023-05-21T03:58:54.475Z,15.11
2023-05-21T04:01:21.061Z,15.16
2023-05-21T04:03:47.839Z,15.15
2023-05-21T04:06:15.997Z,15.15
2023-05-21T04:08:42.756Z,15.13
2023-05-21T04:11:09.403Z,15.13
2023-05-21T04:13:36.898Z,15.20
2023-05-21T04:16:03.490Z,15.13
2023-05-21T04:18:30.005Z,15.11
2023-05-21T04:20:56.589Z,15.26
2023-05-21T04:23:23.749Z,15.30
2023-05-21T04:25:51.026Z,15.19
2023-05-21T04:28:21.127Z,15.15
2023-05-21T04:30:48.321Z,15.30
2023-05-21T04:33:18.228Z,15.31
2023-05-21T04:35:47.343Z,15.33
2023-05-21T04:38:14.190Z,15.39
2023-05-21T04:40:40.934Z,15.51
2023-05-21T04:43:08.238Z,15.64
2023-05-21T04:45:35.031Z,15.59
2023-05-21T04:48:02.841Z,15.82
2023-05-21T04:50:30.879Z,15.75
2023-05-21T04:52:58.856Z,15.73
2023-05-21T04:55:25.993Z,15.89
2023-05-21T04:57:52.923Z,15.95
2023-05-21T05:00:20.222Z,16.04
2023-05-21T05:02:46.858Z,16.09
2023-05-21T05:05:13.865Z,16.30
2023-05-21T05:07:40.387Z,16.24
2023-05-21T05:10:07.494Z,16.49
2023-05-21T05:12:33.996Z,16.43
2023-05-21T05:15:00.614Z,16.54
2023-05-21T05:17:27.544Z,16.65
2023-05-21T05:19:54.077Z,16.72
2023-05-21T05:22:20.619Z,16.77
2023-05-21T05:24:47.201Z,16.75
2023-05-21T05:27:13.691Z,16.86
2023-05-21T05:29:40.223Z,16.84
2023-05-21T05:32:08.067Z,16.87
2023-05-21T05:34:35.002Z,17.10
2023-05-21T05:37:02.818Z,17.14
2023-05-21T05:39:29.341Z,17.28
2023-05-21T05:41:56.030Z,17.45
2023-05-21T05:44:22.541Z,17.43
2023-05-21T05:46:49.064Z,17.45
2023-05-21T05:49:15.716Z,17.68
2023-05-21T05:51:42.263Z,17.61
2023-05-21T05:54:08.776Z,17.67
2023-05-21T05:56:36.391Z,17.73
2023-05-21T05:59:02.915Z,17.89
2023-05-21T06:01:29.402Z,17.81
2023-05-21T06:03:57.389Z,18.10
2023-05-21T06:06:24.022Z,18.25
2023-05-21T06:08:50.594Z,18.35
2023-05-21T06:11:18.822Z,18.26
2023-05-21T06:13:45.942Z,18.20
2023-05-21T06:16:12.641Z,18.41
2023-05-21T06:18:39.180Z,18.54
2023-05-21T06:21:05.980Z,18.43
2023-05-21T06:23:32.734Z,18.30
2023-05-21T06:25:59.400Z,18.61
2023-05-21T06:28:25.851Z,18.79
2023-05-21T06:30:52.417Z,18.73
2023-05-21T06:33:19.052Z,18.59
2023-05-21T06:35:45.699Z,18.66
2023-05-21T06:38:12.203Z,18.63
2023-05-21T06:40:38.732Z,18.77
2023-05-21T06:43:05.469Z,18.65
2023-05-21T06:45:33.042Z,18.84
2023-05-21T06:47:59.652Z,19.09
2023-05-21T06:50:26.346Z,19.25
2023-05-21T06:52:52.866Z,19.23
2023-05-21T06:55:19.487Z,19.30
2023-05-21T06:57:46.017Z,18.98
2023-05-21T07:00:13.086Z,19.32
2023-05-21T07:02:39.653Z,19.41
2023-05-21T07:05:06.452Z,19.86
2023-05-21T07:07:34.868Z,19.83
2023-05-21T07:10:01.467Z,19.89
2023-05-21T07:12:28.095Z,20.30
2023-05-21T07:14:54.629Z,20.17
2023-05-21T07:17:21.314Z,20.26
2023-05-21T07:19:47.791Z,20.22
2023-05-21T07:22:14.745Z,20.42
2023-05-21T07:24:41.233Z,20.26
2023-05-21T07:27:17.741Z,20.64
2023-05-21T07:29:50.984Z,20.66
2023-05-21T07:32:17.549Z,20.62
2023-05-21T07:34:44.107Z,20.74
2023-05-21T07:37:10.732Z,20.82
2023-05-21T07:39:37.818Z,20.77
2023-05-21T07:42:04.492Z,20.70
2023-05-21T07:44:31.981Z,20.81
2023-05-21T07:46:58.482Z,21.02
2023-05-21T07:49:24.943Z,21.31
2023-05-21T07:51:53.485Z,21.42
2023-05-21T07:54:20.082Z,21.64
2023-05-21T07:56:46.598Z,21.79
2023-05-21T07:59:17.139Z,21.83
2023-05-21T08:01:44.257Z,21.94
2023-05-21T08:04:12.393Z,22.02
2023-05-21T08:06:39.042Z,22.15
2023-05-21T08:09:06.400Z,22.27
2023-05-21T08:11:33.317Z,22.33
2023-05-21T08:13:59.962Z,22.45
2023-05-21T08:16:26.907Z,22.44
2023-05-21T08:18:54.092Z,22.41
2023-05-21T08:21:20.822Z,22.30
2023-05-21T08:23:47.364Z,22.40
2023-05-21T08:26:16.501Z,22.43
2023-05-21T08:28:43.373Z,22.64
2023-05-21T08:31:12.405Z,22.58
2023-05-21T08:33:39.058Z,22.81
2023-05-21T08:36:07.588Z,22.57
2023-05-21T08:38:35.200Z,22.87
2023-05-21T08:41:01.719Z,23.15
2023-05-21T08:43:29.709Z,23.14
2023-05-21T08:45:59.169Z,23.20
2023-05-21T08:48:26.101Z,23.42
2023-05-21T08:50:53.937Z,23.44
2023-05-21T08:53:28.111Z,23.55
2023-05-21T08:55:57.218Z,23.79
2023-05-21T08:58:24.028Z,23.79
2023-05-21T09:00:50.884Z,23.78
2023-05-21T09:03:17.973Z,23.84
2023-05-21T09:05:45.834Z,23.81
2023-05-21T09:08:18.451Z,23.93
2023-05-21T09:10:52.929Z,23.82
2023-05-21T09:13:20.517Z,23.70
2023-05-21T09:15:48.225Z,23.80
2023-05-21T09:18:15.037Z,23.89
2023-05-21T09:20:42.001Z,24.11
2023-05-21T09:23:16.664Z,24.29
2023-05-21T09:25:47.605Z,24.45
2023-05-21T09:28:15.775Z,24.50
2023-05-21T09:30:52.230Z,24.48
2023-05-21T09:33:26.280Z,24.63
2023-05-21T09:35:53.216Z,24.79
2023-05-21T09:38:22.920Z,25.03
2023-05-21T09:40:49.468Z,24.72
2023-05-21T09:43:17.467Z,25.00
2023-05-21T09:45:52.560Z,24.97
2023-05-21T09:48:37.559Z,25.27
2023-05-21T09:51:14.343Z,25.30
2023-05-21T09:53:55.787Z,25.33
2023-05-21T09:56:25.040Z,25.47
2023-05-21T09:58:54.863Z,25.51
2023-05-21T10:01:21.967Z,25.67
2023-05-21T10:03:56.015Z,25.62
2023-05-21T10:06:26.392Z,25.50
2023-05-21T10:08:57.036Z,25.61
2023-05-21T10:11:27.637Z,25.62
2023-05-21T10:14:19.720Z,25.68
2023-05-21T10:16:47.702Z,25.60
2023-05-21T10:19:16.252Z,25.95
2023-05-21T10:21:43.771Z,26.11
2023-05-21T10:24:11.050Z,26.15
2023-05-21T10:26:38.519Z,26.18
2023-05-21T10:29:05.156Z,26.39
2023-05-21T10:31:33.162Z,26.68
2023-05-21T10:34:05.875Z,26.52
2023-05-21T10:36:33.015Z,26.64
2023-05-21T10:39:02.738Z,26.84
2023-05-21T10:41:35.893Z,27.09
2023-05-21T10:44:15.669Z,27.20
2023-05-21T10:47:07.606Z,27.26
2023-05-21T10:49:57.905Z,27.20
2023-05-21T10:52:59.950Z,26.79
2023-05-21T10:55:38.729Z,27.40
2023-05-21T10:58:32.412Z,27.49
2023-05-21T11:01:02.297Z,27.33
2023-05-21T11:03:30.375Z,27.67
2023-05-21T11:05:57.783Z,27.52
2023-05-21T11:08:27.171Z,27.91
2023-05-21T11:10:55.214Z,28.20
2023-05-21T11:13:22.084Z,27.99
2023-05-21T11:16:06.635Z,27.86
2023-05-21T11:18:36.131Z,27.74
2023-05-21T11:21:11.385Z,26.96
2023-05-21T11:24:06.696Z,27.03
2023-05-21T11:26:58.475Z,27.00
2023-05-21T11:29:44.151Z,27.30
2023-05-21T11:32:36.295Z,27.33
2023-05-21T11:35:27.180Z,27.25
2023-05-21T11:38:09.354Z,26.61
2023-05-21T11:41:36.170Z,26.86
2023-05-21T11:44:02.698Z,27.08
2023-05-21T11:46:30.027Z,26.86
2023-05-21T11:48:56.825Z,26.94
2023-05-21T11:51:24.596Z,27.42
2023-05-21T11:53:51.329Z,27.36
2023-05-21T11:56:18.335Z,27.59
2023-05-21T11:58:46.513Z,27.48
2023-05-21T12:01:24.832Z,27.56
2023-05-21T12:03:51.408Z,27.77
2023-05-21T12:06:18.536Z,27.63
2023-05-21T12:08:52.259Z,27.78
2023-05-21T12:11:18.779Z,27.90
2023-05-21T12:13:45.355Z,28.13
2023-05-21T12:16:12.295Z,27.90
2023-05-21T12:18:38.860Z,27.98
2023-05-21T12:21:05.388Z,27.95
2023-05-21T12:23:32.032Z,28.00
2023-05-21T12:25:59.496Z,27.96
2023-05-21T12:28:26.048Z,28.10
2023-05-21T12:30:53.700Z,28.12
2023-05-21T12:33:24.407Z,27.89
2023-05-21T12:35:52.687Z,27.65
2023-05-21T12:38:19.403Z,27.94
2023-05-21T12:40:47.011Z,27.99
2023-05-21T12:43:13.609Z,28.07
2023-05-21T12:45:40.902Z,27.48
2023-05-21T12:48:07.656Z,27.62
2023-05-21T12:50:39.628Z,27.72
2023-05-21T12:53:09.373Z,28.12
2023-05-21T12:55:36.016Z,28.28
2023-05-21T12:58:08.356Z,28.00
2023-05-21T13:00:35.604Z,27.65
2023-05-21T13:03:04.448Z,27.25
2023-05-21T13:05:31.486Z,27.48
2023-05-21T13:07:58.177Z,27.41
2023-05-21T13:10:25.752Z,27.48
2023-05-21T13:12:52.414Z,27.34
2023-05-21T13:15:19.214Z,27.51
2023-05-21T13:17:47.239Z,27.30
2023-05-21T13:20:23.802Z,27.28
2023-05-21T13:22:52.099Z,27.31
2023-05-21T13:49:54.220Z,27.54
2023-05-21T13:52:27.117Z,27.36
2023-05-21T13:54:57.981Z,27.20
2023-05-21T13:57:34.991Z,26.97
2023-05-21T14:00:24.589Z,27.31
2023-05-21T14:03:01.721Z,27.43
2023-05-21T14:05:37.632Z,27.23
2023-05-21T14:08:04.652Z,27.49
2023-05-21T14:10:31.299Z,27.56
2023-05-21T14:13:15.450Z,27.63
2023-05-21T14:15:46.146Z,27.69
2023-05-21T14:18:12.810Z,27.43
2023-05-21T14:20:42.089Z,27.63
2023-05-21T14:23:10.351Z,27.78
2023-05-21T14:25:37.241Z,27.56
2023-05-21T14:28:04.111Z,27.61
2023-05-21T14:30:30.775Z,27.66
2023-05-21T14:33:16.302Z,27.22
2023-05-21T14:35:47.996Z,26.96
2023-05-21T14:38:16.654Z,26.80
2023-05-21T14:40:48.356Z,26.83
2023-05-21T14:43:16.052Z,26.55
2023-05-21T14:45:42.910Z,26.68
2023-05-21T14:48:09.697Z,26.67
2023-05-21T14:51:39.016Z,26.23
2023-05-21T14:54:07.720Z,26.19
2023-05-21T14:56:41.572Z,25.95
2023-05-21T14:59:08.275Z,25.64
2023-05-21T15:01:35.073Z,25.45
2023-05-21T15:04:16.152Z,25.26
2023-05-21T15:06:42.664Z,25.35
2023-05-21T15:09:36.231Z,25.02
2023-05-21T15:12:02.841Z,24.88
2023-05-21T15:15:02.599Z,24.87
2023-05-21T15:17:29.277Z,24.85
2023-05-21T15:20:07.824Z,24.81
2023-05-21T15:22:34.380Z,25.28
2023-05-21T15:25:01.752Z,25.55
2023-05-21T15:27:28.370Z,25.45
2023-05-21T15:29:54.963Z,25.49
2023-05-21T15:32:21.788Z,25.39
2023-05-21T15:34:49.655Z,25.48
2023-05-21T15:37:38.945Z,25.62
2023-05-21T15:40:32.608Z,25.77
2023-05-21T15:42:59.278Z,25.91
2023-05-21T15:45:25.933Z,26.12
2023-05-21T15:47:52.749Z,26.11
2023-05-21T15:50:22.424Z,26.06
2023-05-21T15:52:50.363Z,26.11
2023-05-21T15:55:19.469Z,26.12
2023-05-21T15:57:46.108Z,26.23
2023-05-21T16:00:13.388Z,26.08
2023-05-21T16:02:48.187Z,26.16
2023-05-21T16:06:08.015Z,26.15
2023-05-21T16:08:40.200Z,26.26
2023-05-21T16:11:06.779Z,26.26
2023-05-21T16:13:39.889Z,25.99
2023-05-21T16:16:06.765Z,26.14
2023-05-21T16:18:33.347Z,25.89
2023-05-21T16:20:59.992Z,25.86
2023-05-21T16:23:26.638Z,25.73
2023-05-21T16:25:53.176Z,25.87
2023-05-21T16:28:21.121Z,26.11
2023-05-21T16:30:50.353Z,26.06
2023-05-21T16:33:17.257Z,25.87
2023-05-21T16:35:44.041Z,25.87
2023-05-21T16:38:10.605Z,25.83
2023-05-21T16:40:37.226Z,25.89
2023-05-21T16:43:03.950Z,25.87
2023-05-21T16:45:39.527Z,25.73
2023-05-21T16:48:06.643Z,25.78
2023-05-21T16:50:33.566Z,25.63
2023-05-21T16:53:02.671Z,25.71
2023-05-21T16:55:30.939Z,25.66
2023-05-21T16:57:57.909Z,25.42
2023-05-21T17:00:25.218Z,25.63
2023-05-21T17:02:51.880Z,25.46
2023-05-21T17:05:18.514Z,25.56
2023-05-21T17:07:45.134Z,25.30
2023-05-21T17:10:11.821Z,25.42
2023-05-21T17:13:09.744Z,25.22
2023-05-21T17:15:44.764Z,25.37
2023-05-21T17:18:12.243Z,25.45
2023-05-21T17:20:39.141Z,25.39
2023-05-21T17:23:21.218Z,25.36
2023-05-21T17:25:47.955Z,25.38
2023-05-21T17:28:21.036Z,25.30
2023-05-21T17:30:54.744Z,25.35
2023-05-21T17:33:21.540Z,25.27
2023-05-21T17:36:08.421Z,25.21
2023-05-21T17:38:48.392Z,25.07
2023-05-21T17:41:18.813Z,25.17
2023-05-21T17:44:05.874Z,25.02
2023-05-21T17:46:44.356Z,24.96
2023-05-21T17:49:20.071Z,24.83
2023-05-21T17:51:46.913Z,24.69
2023-05-21T17:54:22.902Z,24.74
2023-05-21T17:56:49.478Z,24.69
2023-05-21T17:59:25.569Z,24.58
2023-05-21T18:01:52.201Z,24.57
2023-05-21T18:04:23.145Z,24.56
2023-05-21T18:06:50.012Z,24.18
2023-05-21T18:09:16.576Z,24.51
2023-05-21T18:11:44.653Z,24.31
2023-05-21T18:14:43.686Z,24.12
2023-05-21T18:17:10.438Z,24.08
2023-05-21T18:19:37.064Z,24.14
2023-05-21T18:22:05.237Z,24.07
2023-05-21T18:24:32.998Z,23.99
2023-05-21T18:26:59.740Z,23.86
2023-05-21T18:29:26.385Z,23.97
2023-05-21T18:32:26.282Z,23.81
2023-05-21T18:34:52.887Z,23.64
2023-05-21T18:37:19.584Z,23.64
2023-05-21T18:39:51.290Z,23.57
2023-05-21T18:42:28.247Z,23.62
2023-05-21T18:44:55.053Z,23.42
2023-05-21T18:47:22.864Z,23.32
2023-05-21T18:49:49.739Z,23.32
2023-05-21T18:52:16.334Z,23.08
2023-05-21T18:54:42.939Z,23.13
2023-05-21T18:57:09.583Z,22.90
2023-05-21T18:59:36.523Z,22.86
2023-05-21T19:02:04.234Z,22.89
2023-05-21T19:04:48.904Z,22.72
2023-05-21T19:07:17.538Z,22.66
2023-05-21T19:10:02.023Z,22.58
2023-05-21T19:12:36.239Z,22.51
2023-05-21T19:15:04.051Z,22.42
2023-05-21T19:17:31.049Z,22.34
2023-05-21T19:19:57.770Z,22.26
2023-05-21T19:22:28.915Z,22.02
2023-05-21T19:24:55.778Z,21.93
2023-05-21T19:27:22.425Z,21.98
2023-05-21T19:30:04.919Z,21.93
2023-05-21T19:32:31.661Z,21.85
2023-05-21T19:35:16.838Z,21.77
2023-05-21T19:37:43.664Z,21.70
2023-05-21T19:40:29.905Z,21.71
2023-05-21T19:42:58.523Z,21.73
2023-05-21T19:45:25.541Z,21.63
2023-05-21T19:47:52.194Z,21.64
2023-05-21T19:50:19.177Z,21.45
2023-05-21T19:52:45.852Z,21.53
2023-05-21T19:55:14.008Z,21.50
2023-05-21T19:57:43.999Z,21.45
2023-05-21T20:00:20.172Z,21.27
2023-05-21T20:02:47.968Z,21.24
2023-05-21T20:05:14.639Z,21.21
2023-05-21T20:07:45.001Z,21.18
2023-05-21T20:10:15.852Z,21.14
2023-05-21T20:12:42.687Z,20.95
2023-05-21T20:15:09.858Z,20.93
2023-05-21T20:17:39.845Z,20.97
2023-05-21T20:20:10.274Z,20.94
2023-05-21T20:27:20.248Z,20.70
2023-05-21T20:29:47.127Z,20.62
2023-05-21T20:32:14.812Z,20.59
2023-05-21T20:34:50.711Z,20.64
2023-05-21T20:37:21.747Z,20.62
2023-05-21T20:39:48.499Z,20.54
2023-05-21T20:42:44.979Z,20.53
2023-05-21T20:45:13.016Z,20.44
2023-05-21T20:47:39.903Z,20.46
2023-05-21T20:50:12.250Z,20.45
2023-05-21T20:52:38.956Z,20.38
2023-05-21T20:55:06.123Z,20.30
2023-05-21T20:57:47.789Z,20.18
2023-05-21T21:00:16.087Z,20.32
2023-05-21T21:03:03.862Z,20.08
2023-05-21T21:05:30.662Z,20.05
2023-05-21T21:08:02.519Z,20.12
2023-05-21T21:10:47.076Z,20.00
2023-05-21T21:13:36.062Z,19.89
2023-05-21T21:16:27.750Z,19.91
2023-05-21T21:18:54.469Z,19.85
2023-05-21T21:21:22.164Z,19.83
2023-05-21T21:23:48.864Z,19.97
2023-05-21T21:26:16.634Z,19.85
2023-05-21T21:28:44.898Z,19.84
2023-05-21T21:31:12.822Z,19.80
2023-05-21T21:33:39.370Z,19.63
2023-05-21T21:36:15.321Z,19.59
2023-05-21T21:38:41.883Z,19.56
2023-05-21T21:41:08.489Z,19.49
2023-05-21T21:43:35.147Z,19.54
2023-05-21T21:46:01.771Z,19.53
2023-05-21T21:48:28.403Z,19.39
2023-05-21T21:50:55.091Z,19.33
2023-05-21T21:53:21.723Z,19.19
2023-05-21T21:56:01.732Z,19.19
2023-05-21T21:58:28.317Z,19.15
2023-05-21T22:01:23.222Z,19.04
2023-05-21T22:03:50.016Z,19.00
2023-05-21T22:06:16.662Z,18.97
2023-05-21T22:08:43.401Z,18.87
2023-05-21T22:11:10.623Z,18.86
2023-05-21T22:13:37.767Z,18.82
2023-05-21T22:16:27.644Z,18.80
2023-05-21T22:18:54.550Z,18.69
2023-05-21T22:21:21.718Z,18.79
2023-05-21T22:23:48.393Z,18.67
2023-05-21T22:26:15.056Z,18.63
2023-05-21T22:28:45.812Z,18.71
2023-05-21T22:31:12.587Z,18.69
2023-05-21T22:33:39.451Z,18.66
2023-05-21T22:36:06.235Z,18.74
2023-05-21T22:38:32.975Z,18.63
2023-05-21T22:40:59.700Z,18.50
2023-05-21T22:43:26.964Z,18.56
2023-05-21T22:45:53.603Z,18.45
2023-05-21T22:48:22.038Z,18.46
2023-05-21T22:50:50.230Z,18.44
2023-05-21T22:53:17.512Z,18.41
2023-05-21T22:55:48.273Z,18.48
2023-05-21T22:58:15.074Z,18.42
2023-05-21T23:00:41.828Z,18.33
2023-05-21T23:03:08.628Z,18.28
2023-05-21T23:05:35.440Z,18.24
2023-05-21T23:08:02.097Z,18.16
2023-05-21T23:10:28.772Z,18.22
2023-05-21T23:12:55.585Z,18.23
2023-05-21T23:15:22.777Z,18.13
2023-05-21T23:17:49.408Z,18.22
2023-05-21T23:20:16.254Z,18.12
2023-05-21T23:22:42.894Z,18.04
2023-05-21T23:25:09.940Z,17.93
2023-05-21T23:27:36.499Z,17.96
2023-05-21T23:30:03.352Z,17.89
2023-05-21T23:32:30.142Z,17.81
2023-05-21T23:35:36.285Z,17.73
2023-05-21T23:38:03.025Z,17.72
2023-05-21T23:40:29.628Z,17.70
2023-05-21T23:42:56.239Z,17.74
2023-05-21T23:45:39.176Z,17.65
2023-05-21T23:48:06.117Z,17.62
2023-05-21T23:50:32.975Z,17.44
2023-05-21T23:53:28.667Z,17.51
2023-05-21T23:56:14.495Z,17.45
2023-05-21T23:58:48.284Z,17.43
